Siedlce, Poland
Current Conditions -  °F | °C
As of 8:00 PM on Monday 20 Oct 2014 (Local Time) from EPWA Reporting Station
Few Clouds Few Clouds  
Wind Chill: 57°   Ceiling: Unl
Heat Index: 57°   Visibility: 6mi
Dew Point: 50°   Wind: 17mph
Humidity: 77%   Direction: 260°W
Pressure: 29.8"   Gusts: NA
Location:  52.17°N, 22.28°E
Report Text: EPWA 201800Z 26015KT 230V290 9999 FEW033 14/10 Q1009 NOSIG
Loading
Personal Weather Stations






























Interactive Weather Map
Tropical Storm Tracking
New forecast layout! Learn more

10-Day Weather Forecast

Advertisements
Track Severe Weather on mobile